sensor_id;sensor_type;location;lat;lon;timestamp;pressure;altitude;pressure_sealevel;temperature;humidity
6343;BME280;3204;42.698;23.298;2023-02-03T00:00:36;95153.72;;;4.19;75.29
6343;BME280;3204;42.698;23.298;2023-02-03T00:03:01;95152.13;;;4.23;75.36
6343;BME280;3204;42.698;23.298;2023-02-03T00:05:28;95149.66;;;4.12;76.18
6343;BME280;3204;42.698;23.298;2023-02-03T00:07:54;95155.56;;;4.09;76.95
6343;BME280;3204;42.698;23.298;2023-02-03T00:10:20;95162.84;;;4.23;76.60
6343;BME280;3204;42.698;23.298;2023-02-03T00:12:50;95159.59;;;4.11;77.06
6343;BME280;3204;42.698;23.298;2023-02-03T00:15:17;95170.56;;;4.05;77.52
6343;BME280;3204;42.698;23.298;2023-02-03T00:17:43;95165.19;;;4.00;78.00
6343;BME280;3204;42.698;23.298;2023-02-03T00:20:09;95160.41;;;4.12;78.42
6343;BME280;3204;42.698;23.298;2023-02-03T00:22:35;95164.69;;;4.08;78.50
6343;BME280;3204;42.698;23.298;2023-02-03T00:25:00;95170.56;;;4.05;77.83
6343;BME280;3204;42.698;23.298;2023-02-03T00:27:26;95171.59;;;3.94;78.64
6343;BME280;3204;42.698;23.298;2023-02-03T00:29:52;95175.13;;;4.04;78.91
6343;BME280;3204;42.698;23.298;2023-02-03T00:32:17;95166.25;;;3.99;79.31
6343;BME280;3204;42.698;23.298;2023-02-03T00:34:42;95169.44;;;3.91;80.16
6343;BME280;3204;42.698;23.298;2023-02-03T00:37:08;95173.44;;;3.88;79.83
6343;BME280;3204;42.698;23.298;2023-02-03T00:39:36;95180.13;;;3.81;80.85
6343;BME280;3204;42.698;23.298;2023-02-03T00:42:03;95184.13;;;3.78;80.78
6343;BME280;3204;42.698;23.298;2023-02-03T00:44:28;95186.59;;;3.85;80.82
6343;BME280;3204;42.698;23.298;2023-02-03T00:46:54;95187.69;;;3.89;81.13
6343;BME280;3204;42.698;23.298;2023-02-03T00:49:19;95184.69;;;3.80;81.37
6343;BME280;3204;42.698;23.298;2023-02-03T00:51:45;95177.69;;;3.79;81.46
6343;BME280;3204;42.698;23.298;2023-02-03T00:54:10;95182.28;;;3.84;82.01
6343;BME280;3204;42.698;23.298;2023-02-03T00:56:36;95195.19;;;3.87;81.77
6343;BME280;3204;42.698;23.298;2023-02-03T00:59:02;95193.56;;;3.86;81.74
6343;BME280;3204;42.698;23.298;2023-02-03T01:01:27;95186.06;;;3.88;81.28
6343;BME280;3204;42.698;23.298;2023-02-03T01:03:54;95194.63;;;3.85;81.80
6343;BME280;3204;42.698;23.298;2023-02-03T01:06:21;95212.03;;;3.77;82.29
6343;BME280;3204;42.698;23.298;2023-02-03T01:08:48;95211.78;;;3.79;81.66
6343;BME280;3204;42.698;23.298;2023-02-03T01:11:16;95206.69;;;3.82;81.79
6343;BME280;3204;42.698;23.298;2023-02-03T01:13:43;95208.84;;;3.80;81.65
6343;BME280;3204;42.698;23.298;2023-02-03T01:16:09;95207.75;;;3.81;81.42
6343;BME280;3204;42.698;23.298;2023-02-03T01:18:36;95202.66;;;3.80;81.88
6343;BME280;3204;42.698;23.298;2023-02-03T01:21:09;95207.44;;;3.73;81.80
6343;BME280;3204;42.698;23.298;2023-02-03T01:23:36;95202.38;;;3.76;82.35
6343;BME280;3204;42.698;23.298;2023-02-03T01:26:09;95203.94;;;3.72;82.23
6343;BME280;3204;42.698;23.298;2023-02-03T01:28:35;95209.53;;;3.66;82.02
6343;BME280;3204;42.698;23.298;2023-02-03T01:31:31;95194.78;;;3.63;81.21
6343;BME280;3204;42.698;23.298;2023-02-03T01:34:01;95193.25;;;3.77;80.55
6343;BME280;3204;42.698;23.298;2023-02-03T01:36:29;95201.25;;;3.67;80.32
6343;BME280;3204;42.698;23.298;2023-02-03T01:38:55;95196.81;;;3.46;80.90
6343;BME280;3204;42.698;23.298;2023-02-03T01:41:26;95208.84;;;3.44;81.25
6343;BME280;3204;42.698;23.298;2023-02-03T01:43:54;95215.06;;;3.49;80.89
6343;BME280;3204;42.698;23.298;2023-02-03T01:46:30;95226.88;;;3.48;80.94
6343;BME280;3204;42.698;23.298;2023-02-03T01:49:28;95222.84;;;3.51;80.81
6343;BME280;3204;42.698;23.298;2023-02-03T01:51:56;95223.38;;;3.48;80.88
6343;BME280;3204;42.698;23.298;2023-02-03T01:54:27;95220.41;;;3.44;81.06
6343;BME280;3204;42.698;23.298;2023-02-03T01:57:03;95229.78;;;3.47;81.11
6343;BME280;3204;42.698;23.298;2023-02-03T01:59:30;95224.47;;;3.52;80.31
6343;BME280;3204;42.698;23.298;2023-02-03T02:01:58;95219.03;;;3.42;81.09
6343;BME280;3204;42.698;23.298;2023-02-03T02:04:35;95216.69;;;3.50;80.80
6343;BME280;3204;42.698;23.298;2023-02-03T02:07:02;95226.59;;;3.45;81.06
6343;BME280;3204;42.698;23.298;2023-02-03T02:09:28;95226.59;;;3.45;79.97
6343;BME280;3204;42.698;23.298;2023-02-03T02:11:53;95230.06;;;3.45;80.32
6343;BME280;3204;42.698;23.298;2023-02-03T02:14:19;95233.84;;;3.49;80.57
6343;BME280;3204;42.698;23.298;2023-02-03T02:16:51;95238.94;;;3.51;80.21
6343;BME280;3204;42.698;23.298;2023-02-03T02:22:08;95239.00;;;3.61;79.49
6343;BME280;3204;42.698;23.298;2023-02-03T02:33:06;95239.44;;;3.48;79.97
6343;BME280;3204;42.698;23.298;2023-02-03T02:38:22;95238.06;;;3.40;80.34
6343;BME280;3204;42.698;23.298;2023-02-03T02:41:23;95230.94;;;3.56;79.57
6343;BME280;3204;42.698;23.298;2023-02-03T02:43:59;95236.28;;;3.56;78.94
6343;BME280;3204;42.698;23.298;2023-02-03T02:49:28;95248.78;;;3.40;79.20
6343;BME280;3204;42.698;23.298;2023-02-03T02:51:56;95258.69;;;3.35;79.04
6343;BME280;3204;42.698;23.298;2023-02-03T02:54:26;95276.41;;;3.41;79.10
6343;BME280;3204;42.698;23.298;2023-02-03T02:56:55;95264.56;;;3.37;79.21
6343;BME280;3204;42.698;23.298;2023-02-03T02:59:23;95270.59;;;3.49;78.65
6343;BME280;3204;42.698;23.298;2023-02-03T03:01:48;95270.00;;;3.47;78.27
6343;BME280;3204;42.698;23.298;2023-02-03T03:04:20;95276.13;;;3.37;78.34
6343;BME280;3204;42.698;23.298;2023-02-03T03:06:53;95273.56;;;3.52;77.71
6343;BME280;3204;42.698;23.298;2023-02-03T03:09:30;95273.25;;;3.49;77.76
6343;BME280;3204;42.698;23.298;2023-02-03T03:12:30;95273.19;;;3.44;77.16
6343;BME280;3204;42.698;23.298;2023-02-03T03:15:03;95283.78;;;3.29;77.69
6343;BME280;3204;42.698;23.298;2023-02-03T03:17:33;95284.00;;;3.22;78.07
6343;BME280;3204;42.698;23.298;2023-02-03T03:20:17;95284.28;;;3.21;77.52
6343;BME280;3204;42.698;23.298;2023-02-03T03:22:56;95289.91;;;3.19;77.16
6343;BME280;3204;42.698;23.298;2023-02-03T03:25:34;95286.53;;;3.34;76.68
6343;BME280;3204;42.698;23.298;2023-02-03T03:28:06;95281.44;;;3.32;76.93
6343;BME280;3204;42.698;23.298;2023-02-03T03:30:35;95292.88;;;3.23;76.59
6343;BME280;3204;42.698;23.298;2023-02-03T03:33:02;95292.81;;;3.18;76.46
6343;BME280;3204;42.698;23.298;2023-02-03T03:38:20;95285.13;;;3.26;75.44
6343;BME280;3204;42.698;23.298;2023-02-03T03:41:31;95287.66;;;3.11;75.95
6343;BME280;3204;42.698;23.298;2023-02-03T03:44:02;95287.16;;;3.14;75.93
6343;BME280;3204;42.698;23.298;2023-02-03T03:46:34;95284.75;;;3.13;75.86
6343;BME280;3204;42.698;23.298;2023-02-03T03:49:04;95288.00;;;3.20;75.41
6343;BME280;3204;42.698;23.298;2023-02-03T03:51:46;95286.84;;;3.11;76.49
6343;BME280;3204;42.698;23.298;2023-02-03T03:54:15;95290.59;;;3.10;76.37
6343;BME280;3204;42.698;23.298;2023-02-03T03:57:24;95275.53;;;3.04;76.71
6343;BME280;3204;42.698;23.298;2023-02-03T03:59:53;95267.50;;;3.04;76.91
6343;BME280;3204;42.698;23.298;2023-02-03T04:02:19;95276.84;;;3.01;76.25
6343;BME280;3204;42.698;23.298;2023-02-03T04:04:45;95281.97;;;3.03;76.12
6343;BME280;3204;42.698;23.298;2023-02-03T04:07:12;95278.63;;;2.91;76.62
6343;BME280;3204;42.698;23.298;2023-02-03T04:09:39;95286.16;;;2.94;77.38
6343;BME280;3204;42.698;23.298;2023-02-03T04:12:12;95291.03;;;2.97;76.60
6343;BME280;3204;42.698;23.298;2023-02-03T04:14:40;95288.34;;;2.97;77.11
6343;BME280;3204;42.698;23.298;2023-02-03T04:17:07;95291.78;;;2.92;77.16
6343;BME280;3204;42.698;23.298;2023-02-03T04:19:33;95302.13;;;2.84;77.32
6343;BME280;3204;42.698;23.298;2023-02-03T04:21:59;95300.00;;;2.86;77.36
6343;BME280;3204;42.698;23.298;2023-02-03T04:24:24;95310.72;;;2.86;77.75
6343;BME280;3204;42.698;23.298;2023-02-03T04:26:50;95318.19;;;2.84;77.17
6343;BME280;3204;42.698;23.298;2023-02-03T04:29:16;95307.50;;;2.84;77.04
6343;BME280;3204;42.698;23.298;2023-02-03T04:31:41;95320.94;;;2.89;76.69
6343;BME280;3204;42.698;23.298;2023-02-03T04:34:07;95326.69;;;3.02;77.23
6343;BME280;3204;42.698;23.298;2023-02-03T04:36:33;95322.31;;;2.91;76.82
6343;BME280;3204;42.698;23.298;2023-02-03T04:38:58;95318.56;;;2.92;76.68
6343;BME280;3204;42.698;23.298;2023-02-03T04:41:24;95328.53;;;2.97;76.79
6343;BME280;3204;42.698;23.298;2023-02-03T04:43:49;95318.91;;;3.01;77.20
6343;BME280;3204;42.698;23.298;2023-02-03T04:46:14;95325.28;;;2.95;77.35
6343;BME280;3204;42.698;23.298;2023-02-03T04:48:40;95328.63;;;3.07;76.66
6343;BME280;3204;42.698;23.298;2023-02-03T04:51:07;95338.53;;;3.06;76.10
6343;BME280;3204;42.698;23.298;2023-02-03T04:53:33;95338.78;;;3.05;76.40
6343;BME280;3204;42.698;23.298;2023-02-03T04:55:59;95342.47;;;2.99;76.67
6343;BME280;3204;42.698;23.298;2023-02-03T04:58:25;95345.47;;;2.81;77.48
6343;BME280;3204;42.698;23.298;2023-02-03T05:00:52;95336.38;;;2.82;77.06
6343;BME280;3204;42.698;23.298;2023-02-03T05:03:17;95343.09;;;2.84;77.03
6343;BME280;3204;42.698;23.298;2023-02-03T05:05:43;95356.72;;;2.78;77.49
6343;BME280;3204;42.698;23.298;2023-02-03T05:08:08;95361.50;;;3.02;76.79
6343;BME280;3204;42.698;23.298;2023-02-03T05:10:34;95358.28;;;3.00;77.21
6343;BME280;3204;42.698;23.298;2023-02-03T05:13:00;95358.00;;;2.97;77.35
6343;BME280;3204;42.698;23.298;2023-02-03T05:15:25;95364.97;;;2.98;76.74
6343;BME280;3204;42.698;23.298;2023-02-03T05:17:52;95368.63;;;2.92;76.77
6343;BME280;3204;42.698;23.298;2023-02-03T05:20:18;95383.13;;;2.96;77.04
6343;BME280;3204;42.698;23.298;2023-02-03T05:22:43;95387.78;;;2.79;77.50
6343;BME280;3204;42.698;23.298;2023-02-03T05:25:09;95392.50;;;2.72;78.20
6343;BME280;3204;42.698;23.298;2023-02-03T05:27:37;95396.59;;;2.79;77.68
6343;BME280;3204;42.698;23.298;2023-02-03T05:30:03;95393.19;;;2.84;77.68
6343;BME280;3204;42.698;23.298;2023-02-03T05:32:28;95396.16;;;2.87;76.93
6343;BME280;3204;42.698;23.298;2023-02-03T05:34:54;95400.41;;;2.83;76.80
6343;BME280;3204;42.698;23.298;2023-02-03T05:37:19;95399.34;;;2.84;76.89
6343;BME280;3204;42.698;23.298;2023-02-03T05:39:45;95396.22;;;2.92;77.01
6343;BME280;3204;42.698;23.298;2023-02-03T05:42:10;95394.25;;;2.83;77.59
6343;BME280;3204;42.698;23.298;2023-02-03T05:44:36;95399.97;;;2.91;77.32
6343;BME280;3204;42.698;23.298;2023-02-03T05:47:01;95396.59;;;2.79;77.85
6343;BME280;3204;42.698;23.298;2023-02-03T05:49:27;95404.22;;;2.87;77.27
6343;BME280;3204;42.698;23.298;2023-02-03T05:51:53;95400.03;;;2.75;78.18
6343;BME280;3204;42.698;23.298;2023-02-03T05:54:20;95397.44;;;2.80;77.39
6343;BME280;3204;42.698;23.298;2023-02-03T05:56:45;95402.84;;;2.85;77.07
6343;BME280;3204;42.698;23.298;2023-02-03T05:59:11;95407.50;;;2.73;77.38
6343;BME280;3204;42.698;23.298;2023-02-03T06:01:37;95404.81;;;2.73;77.75
6343;BME280;3204;42.698;23.298;2023-02-03T06:04:03;95417.16;;;2.74;78.13
6343;BME280;3204;42.698;23.298;2023-02-03T06:06:29;95416.28;;;2.90;76.80
6343;BME280;3204;42.698;23.298;2023-02-03T06:09:01;95414.88;;;2.82;77.43
6343;BME280;3204;42.698;23.298;2023-02-03T06:11:27;95420.34;;;2.92;76.67
6343;BME280;3204;42.698;23.298;2023-02-03T06:13:54;95423.94;;;3.03;76.08
6343;BME280;3204;42.698;23.298;2023-02-03T06:16:20;95419.03;;;2.95;76.54
6343;BME280;3204;42.698;23.298;2023-02-03T06:18:46;95420.41;;;2.97;75.90
6343;BME280;3204;42.698;23.298;2023-02-03T06:21:12;95425.94;;;2.91;77.14
6343;BME280;3204;42.698;23.298;2023-02-03T06:23:37;95419.59;;;2.97;76.50
6343;BME280;3204;42.698;23.298;2023-02-03T06:26:03;95427.94;;;3.00;76.70
6343;BME280;3204;42.698;23.298;2023-02-03T06:28:29;95425.25;;;3.00;76.56
6343;BME280;3204;42.698;23.298;2023-02-03T06:30:57;95431.22;;;3.07;76.36
6343;BME280;3204;42.698;23.298;2023-02-03T06:33:23;95426.44;;;3.09;75.66
6343;BME280;3204;42.698;23.298;2023-02-03T06:35:48;95434.66;;;3.03;75.90
6343;BME280;3204;42.698;23.298;2023-02-03T06:38:14;95440.50;;;3.00;76.03
6343;BME280;3204;42.698;23.298;2023-02-03T06:40:39;95446.56;;;3.12;75.33
6343;BME280;3204;42.698;23.298;2023-02-03T06:43:05;95439.56;;;3.11;75.44
6343;BME280;3204;42.698;23.298;2023-02-03T06:45:30;95458.13;;;3.17;74.45
6343;BME280;3204;42.698;23.298;2023-02-03T06:47:55;95458.91;;;3.13;74.91
6343;BME280;3204;42.698;23.298;2023-02-03T06:50:21;95465.38;;;3.17;74.76
6343;BME280;3204;42.698;23.298;2023-02-03T06:52:48;95465.69;;;3.20;75.21
6343;BME280;3204;42.698;23.298;2023-02-03T06:55:13;95475.97;;;3.28;74.15
6343;BME280;3204;42.698;23.298;2023-02-03T06:57:46;95475.72;;;3.30;74.61
6343;BME280;3204;42.698;23.298;2023-02-03T07:00:14;95469.41;;;3.41;73.80
6343;BME280;3204;42.698;23.298;2023-02-03T07:02:40;95469.53;;;3.51;73.43
6343;BME280;3204;42.698;23.298;2023-02-03T07:05:06;95469.53;;;3.51;73.16
6343;BME280;3204;42.698;23.298;2023-02-03T07:07:32;95477.91;;;3.59;73.36
6343;BME280;3204;42.698;23.298;2023-02-03T07:09:59;95472.44;;;3.76;73.22
6343;BME280;3204;42.698;23.298;2023-02-03T07:12:24;95477.31;;;3.79;72.38
6343;BME280;3204;42.698;23.298;2023-02-03T07:14:50;95478.88;;;3.75;72.97
6343;BME280;3204;42.698;23.298;2023-02-03T07:17:16;95476.69;;;3.72;72.82
6343;BME280;3204;42.698;23.298;2023-02-03T07:19:41;95485.38;;;3.79;73.27
6343;BME280;3204;42.698;23.298;2023-02-03T07:22:09;95478.47;;;3.88;73.17
6343;BME280;3204;42.698;23.298;2023-02-03T07:24:34;95487.50;;;4.03;71.56
6343;BME280;3204;42.698;23.298;2023-02-03T07:27:00;95501.75;;;4.09;70.71
6343;BME280;3204;42.698;23.298;2023-02-03T07:29:25;95496.91;;;4.06;71.75
6343;BME280;3204;42.698;23.298;2023-02-03T07:31:51;95501.78;;;4.14;71.00
6343;BME280;3204;42.698;23.298;2023-02-03T07:34:16;95501.78;;;4.14;71.07
6343;BME280;3204;42.698;23.298;2023-02-03T07:36:41;95498.47;;;4.33;70.97
6343;BME280;3204;42.698;23.298;2023-02-03T07:39:07;95511.38;;;4.36;69.58
6343;BME280;3204;42.698;23.298;2023-02-03T07:41:33;95505.28;;;4.46;70.22
6343;BME280;3204;42.698;23.298;2023-02-03T07:43:58;95517.56;;;4.37;69.83
6343;BME280;3204;42.698;23.298;2023-02-03T07:46:24;95518.66;;;4.41;69.60
6343;BME280;3204;42.698;23.298;2023-02-03T07:48:52;95521.38;;;4.46;68.89
6343;BME280;3204;42.698;23.298;2023-02-03T07:51:20;95513.88;;;4.48;68.70
6343;BME280;3204;42.698;23.298;2023-02-03T07:53:45;95522.97;;;4.42;69.00
6343;BME280;3204;42.698;23.298;2023-02-03T07:56:11;95511.16;;;4.43;69.28
6343;BME280;3204;42.698;23.298;2023-02-03T07:58:36;95512.88;;;4.54;69.08
6343;BME280;3204;42.698;23.298;2023-02-03T08:01:12;95520.66;;;4.55;69.08
6343;BME280;3204;42.698;23.298;2023-02-03T08:03:40;95526.75;;;4.46;68.50
6343;BME280;3204;42.698;23.298;2023-02-03T08:06:06;95525.34;;;4.38;69.24
6343;BME280;3204;42.698;23.298;2023-02-03T08:08:31;95524.13;;;4.51;69.19
6343;BME280;3204;42.698;23.298;2023-02-03T08:10:57;95519.63;;;4.61;68.71
6343;BME280;3204;42.698;23.298;2023-02-03T08:13:23;95520.19;;;4.63;68.60
6343;BME280;3204;42.698;23.298;2023-02-03T08:15:48;95520.41;;;4.57;68.80
6343;BME280;3204;42.698;23.298;2023-02-03T08:18:14;95510.44;;;4.52;68.86
6343;BME280;3204;42.698;23.298;2023-02-03T08:20:39;95510.09;;;4.44;69.28
6343;BME280;3204;42.698;23.298;2023-02-03T08:23:05;95509.47;;;4.32;69.81
6343;BME280;3204;42.698;23.298;2023-02-03T08:25:31;95509.47;;;4.32;70.08
6343;BME280;3204;42.698;23.298;2023-02-03T08:27:56;95514.00;;;4.31;69.39
6343;BME280;3204;42.698;23.298;2023-02-03T08:30:22;95506.34;;;4.45;68.22
6343;BME280;3204;42.698;23.298;2023-02-03T08:32:48;95506.13;;;4.20;69.12
6343;BME280;3204;42.698;23.298;2023-02-03T08:35:13;95519.13;;;4.33;68.73
6343;BME280;3204;42.698;23.298;2023-02-03T08:37:39;95518.63;;;4.36;68.58
6343;BME280;3204;42.698;23.298;2023-02-03T08:40:06;95523.22;;;4.40;68.25
6343;BME280;3204;42.698;23.298;2023-02-03T08:42:31;95522.06;;;4.63;67.78
6343;BME280;3204;42.698;23.298;2023-02-03T08:44:57;95534.53;;;4.79;67.79
6343;BME280;3204;42.698;23.298;2023-02-03T08:47:23;95548.19;;;4.72;67.33
6343;BME280;3204;42.698;23.298;2023-02-03T08:49:48;95544.28;;;4.90;65.85
6343;BME280;3204;42.698;23.298;2023-02-03T08:52:14;95546.16;;;4.89;65.80
6343;BME280;3204;42.698;23.298;2023-02-03T08:54:40;95552.13;;;4.96;66.10
6343;BME280;3204;42.698;23.298;2023-02-03T08:57:06;95545.25;;;4.74;66.06
6343;BME280;3204;42.698;23.298;2023-02-03T08:59:32;95543.16;;;4.49;67.08
6343;BME280;3204;42.698;23.298;2023-02-03T09:02:01;95542.09;;;4.50;68.15
6343;BME280;3204;42.698;23.298;2023-02-03T09:04:27;95545.53;;;4.41;68.16
6343;BME280;3204;42.698;23.298;2023-02-03T09:06:53;95544.03;;;4.23;67.64
6343;BME280;3204;42.698;23.298;2023-02-03T09:09:21;95530.94;;;4.32;68.35
6343;BME280;3204;42.698;23.298;2023-02-03T09:11:46;95538.63;;;4.50;68.55
6343;BME280;3204;42.698;23.298;2023-02-03T09:14:12;95530.00;;;4.48;69.13
6343;BME280;3204;42.698;23.298;2023-02-03T09:16:38;95522.06;;;4.63;68.87
6343;BME280;3204;42.698;23.298;2023-02-03T09:19:04;95528.38;;;4.83;67.69
6343;BME280;3204;42.698;23.298;2023-02-03T09:21:30;95535.66;;;4.88;68.06
6343;BME280;3204;42.698;23.298;2023-02-03T09:23:59;95527.66;;;4.98;68.07
6343;BME280;3204;42.698;23.298;2023-02-03T09:26:25;95525.00;;;5.03;68.16
6343;BME280;3204;42.698;23.298;2023-02-03T09:28:51;95543.59;;;5.09;68.39
6343;BME280;3204;42.698;23.298;2023-02-03T09:31:16;95535.34;;;5.21;67.76
6343;BME280;3204;42.698;23.298;2023-02-03T09:33:43;95541.03;;;5.34;67.33
6343;BME280;3204;42.698;23.298;2023-02-03T09:36:10;95544.56;;;5.40;66.66
6343;BME280;3204;42.698;23.298;2023-02-03T09:38:35;95537.00;;;5.32;66.50
6343;BME280;3204;42.698;23.298;2023-02-03T09:43:45;95531.41;;;5.48;65.42
6343;BME280;3204;42.698;23.298;2023-02-03T09:48:43;95540.00;;;5.45;63.76
6343;BME280;3204;42.698;23.298;2023-02-03T09:51:19;95543.25;;;5.47;62.68
6343;BME280;3204;42.698;23.298;2023-02-03T09:53:53;95538.09;;;5.36;63.19
6343;BME280;3204;42.698;23.298;2023-02-03T09:56:32;95540.16;;;5.19;64.11
6343;BME280;3204;42.698;23.298;2023-02-03T09:58:59;95547.72;;;5.27;64.20
6343;BME280;3204;42.698;23.298;2023-02-03T10:01:29;95534.31;;;5.32;63.49
6343;BME280;3204;42.698;23.298;2023-02-03T10:06:44;95535.56;;;5.14;63.07
6343;BME280;3204;42.698;23.298;2023-02-03T10:17:35;95524.91;;;5.34;62.55
6343;BME280;3204;42.698;23.298;2023-02-03T10:22:44;95508.53;;;5.41;62.39
6343;BME280;3204;42.698;23.298;2023-02-03T10:28:23;95502.44;;;5.60;63.07
6343;BME280;3204;42.698;23.298;2023-02-03T10:30:54;95512.66;;;5.63;60.05
6343;BME280;3204;42.698;23.298;2023-02-03T10:33:23;95497.06;;;5.70;60.20
6343;BME280;3204;42.698;23.298;2023-02-03T10:35:51;95498.44;;;5.78;60.19
6343;BME280;3204;42.698;23.298;2023-02-03T10:40:59;95501.97;;;5.83;59.92
6343;BME280;3204;42.698;23.298;2023-02-03T10:43:26;95502.78;;;5.84;60.38
6343;BME280;3204;42.698;23.298;2023-02-03T10:46:15;95520.75;;;5.73;59.86
6343;BME280;3204;42.698;23.298;2023-02-03T10:48:41;95521.56;;;5.74;59.57
6343;BME280;3204;42.698;23.298;2023-02-03T10:53:47;95521.16;;;5.40;59.66
6343;BME280;3204;42.698;23.298;2023-02-03T10:56:17;95535.38;;;5.31;59.49
6343;BME280;3204;42.698;23.298;2023-02-03T10:58:55;95527.84;;;5.33;58.43
6343;BME280;3204;42.698;23.298;2023-02-03T11:01:25;95523.31;;;5.38;57.99
6343;BME280;3204;42.698;23.298;2023-02-03T11:03:56;95521.19;;;5.45;57.97
6343;BME280;3204;42.698;23.298;2023-02-03T11:06:22;95515.31;;;5.58;57.61
6343;BME280;3204;42.698;23.298;2023-02-03T11:08:49;95517.28;;;5.73;56.68
6343;BME280;3204;42.698;23.298;2023-02-03T11:11:28;95496.63;;;5.88;56.22
6343;BME280;3204;42.698;23.298;2023-02-03T11:16:27;95502.31;;;6.22;56.64
6343;BME280;3204;42.698;23.298;2023-02-03T11:19:02;95511.22;;;6.27;56.00
6343;BME280;3204;42.698;23.298;2023-02-03T11:26:48;95498.84;;;6.56;52.55
6343;BME280;3204;42.698;23.298;2023-02-03T11:29:26;95479.13;;;6.66;52.89
6343;BME280;3204;42.698;23.298;2023-02-03T11:31:57;95481.00;;;6.80;53.63
6343;BME280;3204;42.698;23.298;2023-02-03T11:34:35;95477.25;;;6.61;54.10
6343;BME280;3204;42.698;23.298;2023-02-03T11:37:31;95476.44;;;6.56;53.20
6343;BME280;3204;42.698;23.298;2023-02-03T11:42:43;95474.59;;;6.41;52.06
6343;BME280;3204;42.698;23.298;2023-02-03T11:48:00;95470.56;;;6.24;51.45
6343;BME280;3204;42.698;23.298;2023-02-03T11:50:34;95477.81;;;6.18;50.79
6343;BME280;3204;42.698;23.298;2023-02-03T12:01:58;95469.97;;;5.82;52.31
6343;BME280;3204;42.698;23.298;2023-02-03T12:07:42;95459.47;;;5.80;49.63
6343;BME280;3204;42.698;23.298;2023-02-03T12:15:52;95471.78;;;5.76;49.86
6343;BME280;3204;42.698;23.298;2023-02-03T12:21:33;95469.09;;;5.76;48.91
6343;BME280;3204;42.698;23.298;2023-02-03T12:26:49;95448.44;;;6.07;49.66
6343;BME280;3204;42.698;23.298;2023-02-03T12:29:29;95468.38;;;6.21;49.44
6343;BME280;3204;42.698;23.298;2023-02-03T12:37:58;95470.00;;;6.07;49.60
6343;BME280;3204;42.698;23.298;2023-02-03T12:40:49;95465.31;;;5.77;50.50
6343;BME280;3204;42.698;23.298;2023-02-03T12:43:23;95450.53;;;5.75;51.53
6343;BME280;3204;42.698;23.298;2023-02-03T12:46:26;95442.75;;;5.83;51.17
6343;BME280;3204;42.698;23.298;2023-02-03T12:49:13;95448.97;;;6.04;51.58
6343;BME280;3204;42.698;23.298;2023-02-03T12:52:08;95441.59;;;5.54;51.02
6343;BME280;3204;42.698;23.298;2023-02-03T12:54:43;95435.16;;;5.60;52.62
6343;BME280;3204;42.698;23.298;2023-02-03T13:00:17;95425.22;;;5.76;52.38
6343;BME280;3204;42.698;23.298;2023-02-03T13:03:04;95418.78;;;5.77;53.02
6343;BME280;3204;42.698;23.298;2023-02-03T13:05:51;95405.91;;;5.84;53.59
6343;BME280;3204;42.698;23.298;2023-02-03T13:08:27;95410.50;;;6.03;54.13
6343;BME280;3204;42.698;23.298;2023-02-03T13:11:05;95418.84;;;6.12;54.50
6343;BME280;3204;42.698;23.298;2023-02-03T13:13:54;95408.59;;;6.19;53.53
6343;BME280;3204;42.698;23.298;2023-02-03T13:16:25;95420.72;;;5.96;53.96
6343;BME280;3204;42.698;23.298;2023-02-03T13:18:57;95410.22;;;6.05;53.38
6343;BME280;3204;42.698;23.298;2023-02-03T13:21:26;95415.31;;;6.06;53.47
6343;BME280;3204;42.698;23.298;2023-02-03T13:23:52;95418.28;;;6.00;54.16
6343;BME280;3204;42.698;23.298;2023-02-03T13:29:25;95416.97;;;6.12;54.05
6343;BME280;3204;42.698;23.298;2023-02-03T13:37:38;95422.56;;;6.61;52.80
6343;BME280;3204;42.698;23.298;2023-02-03T13:42:54;95424.22;;;6.17;53.26
6343;BME280;3204;42.698;23.298;2023-02-03T13:45:29;95414.78;;;6.09;53.33
6343;BME280;3204;42.698;23.298;2023-02-03T13:48:09;95416.94;;;5.97;54.42
6343;BME280;3204;42.698;23.298;2023-02-03T13:50:36;95423.13;;;5.93;54.32
6343;BME280;3204;42.698;23.298;2023-02-03T13:53:05;95420.72;;;6.01;55.07
6343;BME280;3204;42.698;23.298;2023-02-03T13:55:36;95423.66;;;5.95;55.38
6343;BME280;3204;42.698;23.298;2023-02-03T13:58:04;95425.56;;;5.84;56.02
6343;BME280;3204;42.698;23.298;2023-02-03T14:03:18;95429.59;;;5.82;56.42
6343;BME280;3204;42.698;23.298;2023-02-03T14:05:47;95423.69;;;6.15;56.71
6343;BME280;3204;42.698;23.298;2023-02-03T14:16:41;95422.09;;;7.81;52.64
6343;BME280;3204;42.698;23.298;2023-02-03T14:22:07;95422.13;;;7.76;52.60
6343;BME280;3204;42.698;23.298;2023-02-03T14:24:44;95416.88;;;7.46;52.54
6343;BME280;3204;42.698;23.298;2023-02-03T14:27:23;95414.81;;;7.23;52.95
6343;BME280;3204;42.698;23.298;2023-02-03T14:30:10;95410.59;;;7.02;53.22
6343;BME280;3204;42.698;23.298;2023-02-03T14:33:03;95407.13;;;6.86;53.83
6343;BME280;3204;42.698;23.298;2023-02-03T14:35:39;95424.16;;;6.72;53.73
6343;BME280;3204;42.698;23.298;2023-02-03T14:38:13;95422.81;;;6.74;52.46
6343;BME280;3204;42.698;23.298;2023-02-03T14:40:45;95414.50;;;6.51;52.67
6343;BME280;3204;42.698;23.298;2023-02-03T15:02:23;95401.81;;;5.76;53.00
6343;BME280;3204;42.698;23.298;2023-02-03T15:04:51;95395.09;;;5.74;53.32
6343;BME280;3204;42.698;23.298;2023-02-03T15:10:17;95370.84;;;5.39;53.95
6343;BME280;3204;42.698;23.298;2023-02-03T15:12:50;95370.03;;;5.38;54.42
6343;BME280;3204;42.698;23.298;2023-02-03T15:15:22;95361.69;;;5.45;55.60
6343;BME280;3204;42.698;23.298;2023-02-03T15:17:49;95362.50;;;5.45;55.49
6343;BME280;3204;42.698;23.298;2023-02-03T15:22:55;95350.09;;;5.24;55.74
6343;BME280;3204;42.698;23.298;2023-02-03T15:25:22;95354.94;;;5.27;55.64
6343;BME280;3204;42.698;23.298;2023-02-03T15:27:50;95347.41;;;5.24;55.91
6343;BME280;3204;42.698;23.298;2023-02-03T15:30:18;95337.97;;;5.17;56.32
6343;BME280;3204;42.698;23.298;2023-02-03T15:33:00;95340.94;;;5.15;56.63
6343;BME280;3204;42.698;23.298;2023-02-03T15:35:31;95335.78;;;5.09;56.98
6343;BME280;3204;42.698;23.298;2023-02-03T15:38:03;95335.53;;;5.10;57.00
6343;BME280;3204;42.698;23.298;2023-02-03T15:40:42;95337.94;;;4.97;57.34
6343;BME280;3204;42.698;23.298;2023-02-03T15:43:23;95333.88;;;4.89;57.02
6343;BME280;3204;42.698;23.298;2023-02-03T15:46:09;95337.09;;;4.91;56.58
6343;BME280;3204;42.698;23.298;2023-02-03T15:48:50;95333.56;;;4.81;56.45
6343;BME280;3204;42.698;23.298;2023-02-03T15:56:43;95327.59;;;4.64;56.92
6343;BME280;3204;42.698;23.298;2023-02-03T15:59:23;95332.13;;;4.58;56.94
6343;BME280;3204;42.698;23.298;2023-02-03T16:01:50;95324.84;;;4.49;56.96
6343;BME280;3204;42.698;23.298;2023-02-03T16:04:16;95324.84;;;4.49;57.10